Minisink Hills, Pennsylvania
Current Conditions -  °F | °C
As of 5:53 PM on Thursday 23 Oct 2014 (Local Time) from KMPO Reporting Station
Light Rain Light Rain  
Wind Chill: 36°   Ceiling: 800
Heat Index: 44°   Visibility: 7mi
Dew Point: 41°   Wind: 18mph
Humidity: 89%   Direction: 320°NW
Pressure: 29.81"   Gusts: 29mph
Location:  41°N, 75.14°W
Report Text: KMPO 232153Z AUTO 32016G25KT 7SM -RA OVC008 07/05 A2981 RMK AO2 CIG 005V011 SLP103 T00670050 TSNO PNO $
Loading
Personal Weather Stations






























Interactive Weather Map
Tropical Storm Tracking
New forecast layout! Learn more

10-Day Weather Forecast

Advertisements
Track Severe Weather on mobile